sensor_id;sensor_type;location;lat;lon;timestamp;temperature;humidity
37356;DHT22;48747;50.250;18.848;2024-02-21T00:00:59;5.00;99.90
37356;DHT22;48747;50.250;18.848;2024-02-21T00:03:02;5.00;99.90
37356;DHT22;48747;50.250;18.848;2024-02-21T00:05:06;4.90;99.90
37356;DHT22;48747;50.250;18.848;2024-02-21T00:07:09;4.90;99.90
37356;DHT22;48747;50.250;18.848;2024-02-21T00:09:12;5.00;99.90
37356;DHT22;48747;50.250;18.848;2024-02-21T00:11:20;5.00;99.90
37356;DHT22;48747;50.250;18.848;2024-02-21T00:13:20;5.00;99.90
37356;DHT22;48747;50.250;18.848;2024-02-21T00:15:23;5.00;99.90
37356;DHT22;48747;50.250;18.848;2024-02-21T00:17:26;5.00;99.90
37356;DHT22;48747;50.250;18.848;2024-02-21T00:19:29;5.00;99.90
37356;DHT22;48747;50.250;18.848;2024-02-21T00:21:32;5.00;99.90
37356;DHT22;48747;50.250;18.848;2024-02-21T00:23:35;5.10;99.90
37356;DHT22;48747;50.250;18.848;2024-02-21T00:25:38;5.10;99.90
37356;DHT22;48747;50.250;18.848;2024-02-21T00:27:41;5.10;99.90
37356;DHT22;48747;50.250;18.848;2024-02-21T00:29:44;5.10;99.90
37356;DHT22;48747;50.250;18.848;2024-02-21T00:31:48;5.10;99.90
37356;DHT22;48747;50.250;18.848;2024-02-21T00:33:52;5.10;99.90
37356;DHT22;48747;50.250;18.848;2024-02-21T00:35:55;5.10;99.90
37356;DHT22;48747;50.250;18.848;2024-02-21T00:37:58;5.20;99.90
37356;DHT22;48747;50.250;18.848;2024-02-21T00:40:01;5.20;99.90
37356;DHT22;48747;50.250;18.848;2024-02-21T00:42:05;5.20;99.90
37356;DHT22;48747;50.250;18.848;2024-02-21T00:44:09;5.20;99.90
37356;DHT22;48747;50.250;18.848;2024-02-21T00:46:12;5.20;99.90
37356;DHT22;48747;50.250;18.848;2024-02-21T00:48:15;5.20;99.90
37356;DHT22;48747;50.250;18.848;2024-02-21T00:50:18;5.20;99.90
37356;DHT22;48747;50.250;18.848;2024-02-21T00:52:21;5.10;99.90
37356;DHT22;48747;50.250;18.848;2024-02-21T00:54:24;5.10;99.90
37356;DHT22;48747;50.250;18.848;2024-02-21T00:56:27;5.10;99.90
37356;DHT22;48747;50.250;18.848;2024-02-21T00:58:31;5.10;99.90
37356;DHT22;48747;50.250;18.848;2024-02-21T01:00:34;5.10;99.90
37356;DHT22;48747;50.250;18.848;2024-02-21T01:02:37;5.10;99.90
37356;DHT22;48747;50.250;18.848;2024-02-21T01:04:42;5.20;99.90
37356;DHT22;48747;50.250;18.848;2024-02-21T01:06:45;5.10;99.90
37356;DHT22;48747;50.250;18.848;2024-02-21T01:08:48;5.10;99.90
37356;DHT22;48747;50.250;18.848;2024-02-21T01:10:51;5.10;99.90
37356;DHT22;48747;50.250;18.848;2024-02-21T01:12:54;5.10;99.90
37356;DHT22;48747;50.250;18.848;2024-02-21T01:14:57;5.10;99.90
37356;DHT22;48747;50.250;18.848;2024-02-21T01:17:00;5.10;99.90
37356;DHT22;48747;50.250;18.848;2024-02-21T01:19:03;5.10;99.90
37356;DHT22;48747;50.250;18.848;2024-02-21T01:21:07;5.10;99.90
37356;DHT22;48747;50.250;18.848;2024-02-21T01:23:11;5.10;99.90
37356;DHT22;48747;50.250;18.848;2024-02-21T01:25:14;5.10;99.90
37356;DHT22;48747;50.250;18.848;2024-02-21T01:27:18;5.10;99.90
37356;DHT22;48747;50.250;18.848;2024-02-21T01:29:21;5.10;99.90
37356;DHT22;48747;50.250;18.848;2024-02-21T01:31:24;5.10;99.90
37356;DHT22;48747;50.250;18.848;2024-02-21T01:33:27;5.10;99.90
37356;DHT22;48747;50.250;18.848;2024-02-21T01:35:29;5.10;99.90
37356;DHT22;48747;50.250;18.848;2024-02-21T01:37:34;5.10;99.90
37356;DHT22;48747;50.250;18.848;2024-02-21T01:39:37;5.10;99.90
37356;DHT22;48747;50.250;18.848;2024-02-21T01:41:40;5.10;99.90
37356;DHT22;48747;50.250;18.848;2024-02-21T01:43:43;5.10;99.90
37356;DHT22;48747;50.250;18.848;2024-02-21T01:45:52;5.10;99.90
37356;DHT22;48747;50.250;18.848;2024-02-21T01:47:56;5.10;99.90
37356;DHT22;48747;50.250;18.848;2024-02-21T01:49:59;5.10;99.90
37356;DHT22;48747;50.250;18.848;2024-02-21T01:52:04;5.00;99.90
37356;DHT22;48747;50.250;18.848;2024-02-21T01:54:07;5.00;99.90
37356;DHT22;48747;50.250;18.848;2024-02-21T01:56:10;5.00;99.90
37356;DHT22;48747;50.250;18.848;2024-02-21T01:58:15;4.90;99.90
37356;DHT22;48747;50.250;18.848;2024-02-21T02:00:19;4.90;99.90
37356;DHT22;48747;50.250;18.848;2024-02-21T02:02:22;4.90;99.90
37356;DHT22;48747;50.250;18.848;2024-02-21T02:04:27;4.90;99.90
37356;DHT22;48747;50.250;18.848;2024-02-21T02:06:31;4.90;99.90
37356;DHT22;48747;50.250;18.848;2024-02-21T02:08:34;4.90;99.90
37356;DHT22;48747;50.250;18.848;2024-02-21T02:10:37;4.90;99.90
37356;DHT22;48747;50.250;18.848;2024-02-21T02:12:40;4.90;99.90
37356;DHT22;48747;50.250;18.848;2024-02-21T02:14:43;4.90;99.90
37356;DHT22;48747;50.250;18.848;2024-02-21T02:16:47;4.90;99.90
37356;DHT22;48747;50.250;18.848;2024-02-21T02:18:50;5.00;99.90
37356;DHT22;48747;50.250;18.848;2024-02-21T02:20:53;5.00;99.90
37356;DHT22;48747;50.250;18.848;2024-02-21T02:22:57;5.00;99.90
37356;DHT22;48747;50.250;18.848;2024-02-21T02:25:01;5.00;99.90
37356;DHT22;48747;50.250;18.848;2024-02-21T02:27:04;5.10;99.90
37356;DHT22;48747;50.250;18.848;2024-02-21T02:29:07;5.10;99.90
37356;DHT22;48747;50.250;18.848;2024-02-21T02:31:12;5.10;99.90
37356;DHT22;48747;50.250;18.848;2024-02-21T02:33:15;5.10;99.90
37356;DHT22;48747;50.250;18.848;2024-02-21T02:35:21;5.10;99.90
37356;DHT22;48747;50.250;18.848;2024-02-21T02:37:27;5.10;99.90
37356;DHT22;48747;50.250;18.848;2024-02-21T02:39:30;5.10;99.90
37356;DHT22;48747;50.250;18.848;2024-02-21T02:41:36;5.10;99.90
37356;DHT22;48747;50.250;18.848;2024-02-21T02:43:39;5.10;99.90
37356;DHT22;48747;50.250;18.848;2024-02-21T02:45:42;5.10;99.90
37356;DHT22;48747;50.250;18.848;2024-02-21T02:47:45;5.10;99.90
37356;DHT22;48747;50.250;18.848;2024-02-21T02:49:49;5.10;99.90
37356;DHT22;48747;50.250;18.848;2024-02-21T02:51:52;5.10;99.90
37356;DHT22;48747;50.250;18.848;2024-02-21T02:53:55;5.10;99.90
37356;DHT22;48747;50.250;18.848;2024-02-21T02:55:59;5.10;99.90
37356;DHT22;48747;50.250;18.848;2024-02-21T02:58:02;5.10;99.90
37356;DHT22;48747;50.250;18.848;2024-02-21T03:00:06;5.10;99.90
37356;DHT22;48747;50.250;18.848;2024-02-21T03:02:09;5.10;99.90
37356;DHT22;48747;50.250;18.848;2024-02-21T03:04:12;5.10;99.90
37356;DHT22;48747;50.250;18.848;2024-02-21T03:06:15;5.10;99.90
37356;DHT22;48747;50.250;18.848;2024-02-21T03:08:18;5.10;99.90
37356;DHT22;48747;50.250;18.848;2024-02-21T03:10:21;5.00;99.90
37356;DHT22;48747;50.250;18.848;2024-02-21T03:12:24;5.00;99.90
37356;DHT22;48747;50.250;18.848;2024-02-21T03:14:29;5.00;99.90
37356;DHT22;48747;50.250;18.848;2024-02-21T03:16:32;5.10;99.90
37356;DHT22;48747;50.250;18.848;2024-02-21T03:18:38;5.10;99.90
37356;DHT22;48747;50.250;18.848;2024-02-21T03:20:41;5.10;99.90
37356;DHT22;48747;50.250;18.848;2024-02-21T03:22:44;5.10;99.90
37356;DHT22;48747;50.250;18.848;2024-02-21T03:24:48;5.00;99.90
37356;DHT22;48747;50.250;18.848;2024-02-21T03:26:52;5.00;99.90
37356;DHT22;48747;50.250;18.848;2024-02-21T03:28:54;5.00;99.90
37356;DHT22;48747;50.250;18.848;2024-02-21T03:30:58;5.00;99.90
37356;DHT22;48747;50.250;18.848;2024-02-21T03:33:01;5.00;99.90
37356;DHT22;48747;50.250;18.848;2024-02-21T03:35:04;5.00;99.90
37356;DHT22;48747;50.250;18.848;2024-02-21T03:37:09;5.00;99.90
37356;DHT22;48747;50.250;18.848;2024-02-21T03:39:12;5.00;99.90
37356;DHT22;48747;50.250;18.848;2024-02-21T03:41:15;5.00;99.90
37356;DHT22;48747;50.250;18.848;2024-02-21T03:43:18;5.00;99.90
37356;DHT22;48747;50.250;18.848;2024-02-21T03:45:21;5.00;99.90
37356;DHT22;48747;50.250;18.848;2024-02-21T03:47:24;5.10;99.90
37356;DHT22;48747;50.250;18.848;2024-02-21T03:49:27;5.10;99.90
37356;DHT22;48747;50.250;18.848;2024-02-21T03:51:30;5.10;99.90
37356;DHT22;48747;50.250;18.848;2024-02-21T03:53:33;5.00;99.90
37356;DHT22;48747;50.250;18.848;2024-02-21T03:55:36;5.00;99.90
37356;DHT22;48747;50.250;18.848;2024-02-21T03:57:39;5.00;99.90
37356;DHT22;48747;50.250;18.848;2024-02-21T03:59:43;5.10;99.90
37356;DHT22;48747;50.250;18.848;2024-02-21T04:01:46;5.10;99.90
37356;DHT22;48747;50.250;18.848;2024-02-21T04:03:49;5.10;99.90
37356;DHT22;48747;50.250;18.848;2024-02-21T04:05:52;5.10;99.90
37356;DHT22;48747;50.250;18.848;2024-02-21T04:07:55;5.10;99.90
37356;DHT22;48747;50.250;18.848;2024-02-21T04:09:58;5.10;99.90
37356;DHT22;48747;50.250;18.848;2024-02-21T04:12:01;5.10;99.90
37356;DHT22;48747;50.250;18.848;2024-02-21T04:14:04;5.10;99.90
37356;DHT22;48747;50.250;18.848;2024-02-21T04:16:07;5.10;99.90
37356;DHT22;48747;50.250;18.848;2024-02-21T04:18:10;5.10;99.90
37356;DHT22;48747;50.250;18.848;2024-02-21T04:20:21;5.10;99.90
37356;DHT22;48747;50.250;18.848;2024-02-21T04:22:21;5.10;99.90
37356;DHT22;48747;50.250;18.848;2024-02-21T04:24:25;5.10;99.90
37356;DHT22;48747;50.250;18.848;2024-02-21T04:26:29;5.00;99.90
37356;DHT22;48747;50.250;18.848;2024-02-21T04:28:32;5.10;99.90
37356;DHT22;48747;50.250;18.848;2024-02-21T04:30:35;5.10;99.90
37356;DHT22;48747;50.250;18.848;2024-02-21T04:32:39;5.10;99.90
37356;DHT22;48747;50.250;18.848;2024-02-21T04:34:42;5.10;99.90
37356;DHT22;48747;50.250;18.848;2024-02-21T04:36:45;5.10;99.90
37356;DHT22;48747;50.250;18.848;2024-02-21T04:38:48;5.10;99.90
37356;DHT22;48747;50.250;18.848;2024-02-21T04:40:52;5.10;99.90
37356;DHT22;48747;50.250;18.848;2024-02-21T04:42:55;5.10;99.90
37356;DHT22;48747;50.250;18.848;2024-02-21T04:44:58;5.10;99.90
37356;DHT22;48747;50.250;18.848;2024-02-21T04:47:01;5.10;99.90
37356;DHT22;48747;50.250;18.848;2024-02-21T04:49:05;5.10;99.90
37356;DHT22;48747;50.250;18.848;2024-02-21T04:51:08;5.10;99.90
37356;DHT22;48747;50.250;18.848;2024-02-21T04:53:11;5.10;99.90
37356;DHT22;48747;50.250;18.848;2024-02-21T04:55:14;5.00;99.90
37356;DHT22;48747;50.250;18.848;2024-02-21T04:57:17;5.10;99.90
37356;DHT22;48747;50.250;18.848;2024-02-21T04:59:20;5.00;99.90
37356;DHT22;48747;50.250;18.848;2024-02-21T05:01:23;5.00;99.90
37356;DHT22;48747;50.250;18.848;2024-02-21T05:03:26;4.90;99.90
37356;DHT22;48747;50.250;18.848;2024-02-21T05:05:29;4.90;99.90
37356;DHT22;48747;50.250;18.848;2024-02-21T05:07:32;4.90;99.90
37356;DHT22;48747;50.250;18.848;2024-02-21T05:09:37;4.90;99.90
37356;DHT22;48747;50.250;18.848;2024-02-21T05:11:40;4.90;99.90
37356;DHT22;48747;50.250;18.848;2024-02-21T05:13:43;4.90;99.90
37356;DHT22;48747;50.250;18.848;2024-02-21T05:15:46;4.90;99.90
37356;DHT22;48747;50.250;18.848;2024-02-21T05:17:49;4.90;99.90
37356;DHT22;48747;50.250;18.848;2024-02-21T05:19:52;4.90;99.90
37356;DHT22;48747;50.250;18.848;2024-02-21T05:21:55;4.80;99.90
37356;DHT22;48747;50.250;18.848;2024-02-21T05:23:58;4.80;99.90
37356;DHT22;48747;50.250;18.848;2024-02-21T05:26:05;4.70;99.90
37356;DHT22;48747;50.250;18.848;2024-02-21T05:28:06;4.70;99.90
37356;DHT22;48747;50.250;18.848;2024-02-21T05:30:10;4.70;99.90
37356;DHT22;48747;50.250;18.848;2024-02-21T05:32:13;4.60;99.90
37356;DHT22;48747;50.250;18.848;2024-02-21T05:34:16;4.60;99.90
37356;DHT22;48747;50.250;18.848;2024-02-21T05:36:22;4.60;99.90
37356;DHT22;48747;50.250;18.848;2024-02-21T05:38:25;4.70;99.90
37356;DHT22;48747;50.250;18.848;2024-02-21T05:40:28;4.60;99.90
37356;DHT22;48747;50.250;18.848;2024-02-21T05:42:31;4.70;99.90
37356;DHT22;48747;50.250;18.848;2024-02-21T05:44:34;4.70;99.90
37356;DHT22;48747;50.250;18.848;2024-02-21T05:46:37;4.70;99.90
37356;DHT22;48747;50.250;18.848;2024-02-21T05:48:40;4.70;99.90
37356;DHT22;48747;50.250;18.848;2024-02-21T05:50:43;4.70;99.90
37356;DHT22;48747;50.250;18.848;2024-02-21T05:52:46;4.80;99.90
37356;DHT22;48747;50.250;18.848;2024-02-21T05:54:49;4.80;99.90
37356;DHT22;48747;50.250;18.848;2024-02-21T05:56:52;4.80;99.90
37356;DHT22;48747;50.250;18.848;2024-02-21T05:58:55;4.90;99.90
37356;DHT22;48747;50.250;18.848;2024-02-21T06:00:58;4.90;99.90
37356;DHT22;48747;50.250;18.848;2024-02-21T06:03:04;4.90;99.90
37356;DHT22;48747;50.250;18.848;2024-02-21T06:05:07;5.00;99.90
37356;DHT22;48747;50.250;18.848;2024-02-21T06:07:10;5.00;99.90
37356;DHT22;48747;50.250;18.848;2024-02-21T06:09:13;5.00;99.90
37356;DHT22;48747;50.250;18.848;2024-02-21T06:11:16;5.10;99.90
37356;DHT22;48747;50.250;18.848;2024-02-21T06:13:26;5.10;99.90
37356;DHT22;48747;50.250;18.848;2024-02-21T06:15:29;5.10;99.90
37356;DHT22;48747;50.250;18.848;2024-02-21T06:17:32;5.20;99.90
37356;DHT22;48747;50.250;18.848;2024-02-21T06:19:35;5.10;99.90
37356;DHT22;48747;50.250;18.848;2024-02-21T06:21:38;5.20;99.90
37356;DHT22;48747;50.250;18.848;2024-02-21T06:23:41;5.20;99.90
37356;DHT22;48747;50.250;18.848;2024-02-21T06:25:44;5.20;99.90
37356;DHT22;48747;50.250;18.848;2024-02-21T06:27:49;5.20;99.90
37356;DHT22;48747;50.250;18.848;2024-02-21T06:29:52;5.30;99.90
37356;DHT22;48747;50.250;18.848;2024-02-21T06:31:55;5.30;99.90
37356;DHT22;48747;50.250;18.848;2024-02-21T06:33:58;5.30;99.90
37356;DHT22;48747;50.250;18.848;2024-02-21T06:36:01;5.30;99.90
37356;DHT22;48747;50.250;18.848;2024-02-21T06:38:04;5.40;99.90
37356;DHT22;48747;50.250;18.848;2024-02-21T06:40:08;5.30;99.90
37356;DHT22;48747;50.250;18.848;2024-02-21T06:42:11;5.30;99.90
37356;DHT22;48747;50.250;18.848;2024-02-21T06:44:14;5.40;99.90
37356;DHT22;48747;50.250;18.848;2024-02-21T06:46:29;5.40;99.90
37356;DHT22;48747;50.250;18.848;2024-02-21T06:48:28;5.40;99.90
37356;DHT22;48747;50.250;18.848;2024-02-21T06:50:31;5.50;99.90
37356;DHT22;48747;50.250;18.848;2024-02-21T06:52:36;5.40;99.90
37356;DHT22;48747;50.250;18.848;2024-02-21T06:54:39;5.50;99.90
37356;DHT22;48747;50.250;18.848;2024-02-21T06:56:42;5.50;99.90
37356;DHT22;48747;50.250;18.848;2024-02-21T06:58:45;5.50;99.90
37356;DHT22;48747;50.250;18.848;2024-02-21T07:00:48;5.50;99.90
37356;DHT22;48747;50.250;18.848;2024-02-21T07:02:51;5.60;99.90
37356;DHT22;48747;50.250;18.848;2024-02-21T07:04:54;5.60;99.90
37356;DHT22;48747;50.250;18.848;2024-02-21T07:06:57;5.60;99.90
37356;DHT22;48747;50.250;18.848;2024-02-21T07:09:00;5.60;99.90
37356;DHT22;48747;50.250;18.848;2024-02-21T07:11:03;5.60;99.90
37356;DHT22;48747;50.250;18.848;2024-02-21T07:13:06;5.70;99.90
37356;DHT22;48747;50.250;18.848;2024-02-21T07:15:09;5.70;99.90
37356;DHT22;48747;50.250;18.848;2024-02-21T07:17:13;5.60;99.90
37356;DHT22;48747;50.250;18.848;2024-02-21T07:19:16;5.60;99.90
37356;DHT22;48747;50.250;18.848;2024-02-21T07:21:19;5.60;99.90
37356;DHT22;48747;50.250;18.848;2024-02-21T07:23:22;5.70;99.90
37356;DHT22;48747;50.250;18.848;2024-02-21T07:25:25;5.70;99.90
37356;DHT22;48747;50.250;18.848;2024-02-21T07:27:28;5.70;99.90
37356;DHT22;48747;50.250;18.848;2024-02-21T07:29:33;5.70;99.90
37356;DHT22;48747;50.250;18.848;2024-02-21T07:31:43;5.80;99.90
37356;DHT22;48747;50.250;18.848;2024-02-21T07:33:47;5.80;99.90
37356;DHT22;48747;50.250;18.848;2024-02-21T07:35:50;5.80;99.90
37356;DHT22;48747;50.250;18.848;2024-02-21T07:37:53;5.80;99.90
37356;DHT22;48747;50.250;18.848;2024-02-21T07:39:56;5.90;99.90
37356;DHT22;48747;50.250;18.848;2024-02-21T07:41:59;5.90;99.90
37356;DHT22;48747;50.250;18.848;2024-02-21T07:44:02;6.00;99.90
37356;DHT22;48747;50.250;18.848;2024-02-21T07:46:05;6.20;99.90
37356;DHT22;48747;50.250;18.848;2024-02-21T07:48:08;6.30;99.90
37356;DHT22;48747;50.250;18.848;2024-02-21T07:50:12;6.40;99.90
37356;DHT22;48747;50.250;18.848;2024-02-21T07:52:15;6.50;99.90
37356;DHT22;48747;50.250;18.848;2024-02-21T07:54:18;6.70;99.90
37356;DHT22;48747;50.250;18.848;2024-02-21T07:56:21;6.70;99.90
37356;DHT22;48747;50.250;18.848;2024-02-21T07:58:24;6.90;99.90
37356;DHT22;48747;50.250;18.848;2024-02-21T08:00:29;7.00;99.90
37356;DHT22;48747;50.250;18.848;2024-02-21T08:02:37;7.10;99.90
37356;DHT22;48747;50.250;18.848;2024-02-21T08:04:44;7.20;99.90
37356;DHT22;48747;50.250;18.848;2024-02-21T08:06:53;7.20;99.90
37356;DHT22;48747;50.250;18.848;2024-02-21T08:08:54;7.30;99.90
37356;DHT22;48747;50.250;18.848;2024-02-21T08:10:58;7.30;99.90
37356;DHT22;48747;50.250;18.848;2024-02-21T08:13:01;7.40;99.90
37356;DHT22;48747;50.250;18.848;2024-02-21T08:15:05;7.50;99.90
37356;DHT22;48747;50.250;18.848;2024-02-21T08:17:09;7.50;99.90
37356;DHT22;48747;50.250;18.848;2024-02-21T08:19:12;7.50;99.90
37356;DHT22;48747;50.250;18.848;2024-02-21T08:21:21;7.50;99.90
37356;DHT22;48747;50.250;18.848;2024-02-21T08:23:23;7.40;99.90
37356;DHT22;48747;50.250;18.848;2024-02-21T08:25:25;7.40;99.90
37356;DHT22;48747;50.250;18.848;2024-02-21T08:27:27;7.30;99.90
37356;DHT22;48747;50.250;18.848;2024-02-21T08:29:30;7.20;99.90
37356;DHT22;48747;50.250;18.848;2024-02-21T08:31:33;7.20;99.90
37356;DHT22;48747;50.250;18.848;2024-02-21T08:33:36;7.10;99.90
37356;DHT22;48747;50.250;18.848;2024-02-21T08:35:39;7.10;99.90
37356;DHT22;48747;50.250;18.848;2024-02-21T08:37:42;7.00;99.90
37356;DHT22;48747;50.250;18.848;2024-02-21T08:39:47;7.00;99.90
37356;DHT22;48747;50.250;18.848;2024-02-21T08:41:50;7.00;99.90
37356;DHT22;48747;50.250;18.848;2024-02-21T08:43:54;7.10;99.90
37356;DHT22;48747;50.250;18.848;2024-02-21T08:45:57;7.20;99.90
37356;DHT22;48747;50.250;18.848;2024-02-21T08:48:00;7.30;99.90
37356;DHT22;48747;50.250;18.848;2024-02-21T08:50:04;7.40;99.90
37356;DHT22;48747;50.250;18.848;2024-02-21T08:52:07;7.50;99.90
37356;DHT22;48747;50.250;18.848;2024-02-21T08:54:10;7.70;99.90
37356;DHT22;48747;50.250;18.848;2024-02-21T08:56:13;7.80;99.90
37356;DHT22;48747;50.250;18.848;2024-02-21T08:58:17;8.00;99.90
37356;DHT22;48747;50.250;18.848;2024-02-21T09:00:20;8.10;99.90
37356;DHT22;48747;50.250;18.848;2024-02-21T09:02:25;8.10;99.90
37356;DHT22;48747;50.250;18.848;2024-02-21T09:04:28;8.20;99.90
37356;DHT22;48747;50.250;18.848;2024-02-21T09:06:31;8.20;99.90
37356;DHT22;48747;50.250;18.848;2024-02-21T09:08:35;8.20;99.90
37356;DHT22;48747;50.250;18.848;2024-02-21T09:10:39;8.20;99.90
37356;DHT22;48747;50.250;18.848;2024-02-21T09:12:42;8.20;99.90
37356;DHT22;48747;50.250;18.848;2024-02-21T09:14:45;8.20;99.90
37356;DHT22;48747;50.250;18.848;2024-02-21T09:16:50;8.30;99.90
37356;DHT22;48747;50.250;18.848;2024-02-21T09:18:53;8.40;99.90
37356;DHT22;48747;50.250;18.848;2024-02-21T09:20:56;8.50;99.90
37356;DHT22;48747;50.250;18.848;2024-02-21T09:22:59;8.70;99.90
37356;DHT22;48747;50.250;18.848;2024-02-21T09:25:02;8.90;99.90
37356;DHT22;48747;50.250;18.848;2024-02-21T09:27:06;9.10;99.90
37356;DHT22;48747;50.250;18.848;2024-02-21T09:29:09;9.20;99.90
37356;DHT22;48747;50.250;18.848;2024-02-21T09:31:12;9.20;99.90
37356;DHT22;48747;50.250;18.848;2024-02-21T09:33:15;9.20;99.90
37356;DHT22;48747;50.250;18.848;2024-02-21T09:35:20;9.30;99.90
37356;DHT22;48747;50.250;18.848;2024-02-21T09:37:25;9.40;99.90
37356;DHT22;48747;50.250;18.848;2024-02-21T09:39:27;9.40;99.90
37356;DHT22;48747;50.250;18.848;2024-02-21T09:41:30;9.40;99.90
37356;DHT22;48747;50.250;18.848;2024-02-21T09:43:36;9.30;99.90
37356;DHT22;48747;50.250;18.848;2024-02-21T09:45:40;9.20;99.90
37356;DHT22;48747;50.250;18.848;2024-02-21T09:50:09;9.30;99.90
37356;DHT22;48747;50.250;18.848;2024-02-21T09:52:13;9.30;99.90
37356;DHT22;48747;50.250;18.848;2024-02-21T09:54:18;9.30;99.90
37356;DHT22;48747;50.250;18.848;2024-02-21T09:56:22;9.30;99.90
37356;DHT22;48747;50.250;18.848;2024-02-21T09:58:26;9.30;99.90
37356;DHT22;48747;50.250;18.848;2024-02-21T10:00:30;9.30;99.90
37356;DHT22;48747;50.250;18.848;2024-02-21T10:02:33;9.20;99.90
37356;DHT22;48747;50.250;18.848;2024-02-21T10:04:36;9.20;99.90
37356;DHT22;48747;50.250;18.848;2024-02-21T10:06:39;9.20;99.90
37356;DHT22;48747;50.250;18.848;2024-02-21T10:08:42;9.20;99.90
37356;DHT22;48747;50.250;18.848;2024-02-21T10:10:46;9.30;99.90
37356;DHT22;48747;50.250;18.848;2024-02-21T10:12:51;9.30;99.90
37356;DHT22;48747;50.250;18.848;2024-02-21T10:15:06;9.30;99.90
37356;DHT22;48747;50.250;18.848;2024-02-21T10:17:16;9.40;99.90
37356;DHT22;48747;50.250;18.848;2024-02-21T10:19:21;9.40;99.90
37356;DHT22;48747;50.250;18.848;2024-02-21T10:21:24;9.40;99.90
37356;DHT22;48747;50.250;18.848;2024-02-21T10:23:27;9.40;99.90
37356;DHT22;48747;50.250;18.848;2024-02-21T10:25:30;9.40;99.90
37356;DHT22;48747;50.250;18.848;2024-02-21T10:27:33;9.50;99.90
37356;DHT22;48747;50.250;18.848;2024-02-21T10:29:37;9.50;99.90
37356;DHT22;48747;50.250;18.848;2024-02-21T10:31:40;9.50;99.90
37356;DHT22;48747;50.250;18.848;2024-02-21T10:33:43;9.60;99.90
37356;DHT22;48747;50.250;18.848;2024-02-21T10:35:47;9.60;99.90
37356;DHT22;48747;50.250;18.848;2024-02-21T10:37:51;9.60;99.90
37356;DHT22;48747;50.250;18.848;2024-02-21T10:39:56;9.60;99.90
37356;DHT22;48747;50.250;18.848;2024-02-21T10:42:03;9.60;99.90
37356;DHT22;48747;50.250;18.848;2024-02-21T10:44:08;9.60;99.90
37356;DHT22;48747;50.250;18.848;2024-02-21T10:46:12;9.70;99.90
37356;DHT22;48747;50.250;18.848;2024-02-21T10:48:15;9.70;99.90
37356;DHT22;48747;50.250;18.848;2024-02-21T10:50:20;9.80;99.90
37356;DHT22;48747;50.250;18.848;2024-02-21T10:54:58;9.70;99.90
37356;DHT22;48747;50.250;18.848;2024-02-21T10:57:01;9.70;99.90
37356;DHT22;48747;50.250;18.848;2024-02-21T10:59:06;9.70;99.90
37356;DHT22;48747;50.250;18.848;2024-02-21T11:01:10;9.70;99.90
37356;DHT22;48747;50.250;18.848;2024-02-21T11:03:14;9.60;99.90
37356;DHT22;48747;50.250;18.848;2024-02-21T11:05:18;9.60;99.90
37356;DHT22;48747;50.250;18.848;2024-02-21T11:07:21;9.60;99.90
37356;DHT22;48747;50.250;18.848;2024-02-21T11:09:31;9.60;99.90
37356;DHT22;48747;50.250;18.848;2024-02-21T11:11:41;9.60;99.90
37356;DHT22;48747;50.250;18.848;2024-02-21T11:13:46;9.60;99.90
37356;DHT22;48747;50.250;18.848;2024-02-21T11:15:49;9.60;99.90
37356;DHT22;48747;50.250;18.848;2024-02-21T11:17:56;9.60;99.90
37356;DHT22;48747;50.250;18.848;2024-02-21T11:20:10;9.60;99.90
37356;DHT22;48747;50.250;18.848;2024-02-21T11:22:13;9.50;99.90
37356;DHT22;48747;50.250;18.848;2024-02-21T11:24:12;9.50;99.90
37356;DHT22;48747;50.250;18.848;2024-02-21T11:26:20;9.50;99.90
37356;DHT22;48747;50.250;18.848;2024-02-21T11:28:26;9.50;99.90
37356;DHT22;48747;50.250;18.848;2024-02-21T11:30:31;9.50;99.90
37356;DHT22;48747;50.250;18.848;2024-02-21T11:32:49;9.50;99.90
37356;DHT22;48747;50.250;18.848;2024-02-21T11:34:59;9.60;99.90
37356;DHT22;48747;50.250;18.848;2024-02-21T11:37:14;9.60;99.90
37356;DHT22;48747;50.250;18.848;2024-02-21T11:39:24;9.60;99.90
37356;DHT22;48747;50.250;18.848;2024-02-21T11:41:28;9.50;99.90
37356;DHT22;48747;50.250;18.848;2024-02-21T11:43:31;9.40;99.90
37356;DHT22;48747;50.250;18.848;2024-02-21T11:45:34;9.30;99.90
37356;DHT22;48747;50.250;18.848;2024-02-21T11:47:37;9.20;99.90
37356;DHT22;48747;50.250;18.848;2024-02-21T11:49:46;9.20;99.90
37356;DHT22;48747;50.250;18.848;2024-02-21T11:52:02;9.10;99.90
37356;DHT22;48747;50.250;18.848;2024-02-21T11:54:08;9.10;99.90
37356;DHT22;48747;50.250;18.848;2024-02-21T11:56:15;9.10;99.90
37356;DHT22;48747;50.250;18.848;2024-02-21T11:58:18;9.10;99.90
37356;DHT22;48747;50.250;18.848;2024-02-21T12:00:21;9.10;99.90
37356;DHT22;48747;50.250;18.848;2024-02-21T12:02:27;9.00;99.90
37356;DHT22;48747;50.250;18.848;2024-02-21T12:04:30;9.00;99.90
37356;DHT22;48747;50.250;18.848;2024-02-21T12:06:34;9.00;99.90
37356;DHT22;48747;50.250;18.848;2024-02-21T12:08:46;8.90;99.90
37356;DHT22;48747;50.250;18.848;2024-02-21T12:10:49;8.90;99.90
37356;DHT22;48747;50.250;18.848;2024-02-21T12:12:53;8.80;99.90
37356;DHT22;48747;50.250;18.848;2024-02-21T12:14:58;8.70;99.90
37356;DHT22;48747;50.250;18.848;2024-02-21T12:17:02;8.70;99.90
37356;DHT22;48747;50.250;18.848;2024-02-21T12:19:08;8.60;99.90
37356;DHT22;48747;50.250;18.848;2024-02-21T12:21:11;8.60;99.90
37356;DHT22;48747;50.250;18.848;2024-02-21T12:23:14;8.60;99.90
37356;DHT22;48747;50.250;18.848;2024-02-21T12:25:19;8.50;99.90
37356;DHT22;48747;50.250;18.848;2024-02-21T12:27:24;8.50;99.90
37356;DHT22;48747;50.250;18.848;2024-02-21T12:29:28;8.40;99.90
37356;DHT22;48747;50.250;18.848;2024-02-21T12:31:32;8.40;99.90
37356;DHT22;48747;50.250;18.848;2024-02-21T12:33:35;8.30;99.90
37356;DHT22;48747;50.250;18.848;2024-02-21T12:35:38;8.30;99.90
37356;DHT22;48747;50.250;18.848;2024-02-21T12:37:41;8.30;99.90
37356;DHT22;48747;50.250;18.848;2024-02-21T12:39:44;8.30;99.90
37356;DHT22;48747;50.250;18.848;2024-02-21T12:41:47;8.30;99.90
37356;DHT22;48747;50.250;18.848;2024-02-21T12:43:50;8.30;99.90
37356;DHT22;48747;50.250;18.848;2024-02-21T12:45:53;8.30;99.90
37356;DHT22;48747;50.250;18.848;2024-02-21T12:47:59;8.30;99.90
37356;DHT22;48747;50.250;18.848;2024-02-21T12:50:04;8.30;99.90
37356;DHT22;48747;50.250;18.848;2024-02-21T12:52:09;8.20;99.90
37356;DHT22;48747;50.250;18.848;2024-02-21T12:54:12;8.20;99.90
37356;DHT22;48747;50.250;18.848;2024-02-21T12:56:17;8.30;99.90
37356;DHT22;48747;50.250;18.848;2024-02-21T12:58:20;8.30;99.90
37356;DHT22;48747;50.250;18.848;2024-02-21T13:00:23;8.40;99.90
37356;DHT22;48747;50.250;18.848;2024-02-21T13:02:28;8.40;99.90
37356;DHT22;48747;50.250;18.848;2024-02-21T13:04:34;8.50;99.90
37356;DHT22;48747;50.250;18.848;2024-02-21T13:06:37;8.60;99.90